sensor_id;sensor_type;location;lat;lon;timestamp;temperature;humidity
64561;DHT22;50960;46.838;16.838;2023-02-24T13:32:38;16.00;48.80
64561;DHT22;50960;46.838;16.838;2023-02-24T13:35:28;15.80;50.20
64561;DHT22;50960;46.838;16.838;2023-02-24T13:37:53;15.90;50.20
64561;DHT22;50960;46.838;16.838;2023-02-24T13:42:59;15.70;48.40
64561;DHT22;50960;46.838;16.838;2023-02-24T13:45:32;15.90;49.20
64561;DHT22;50960;46.838;16.838;2023-02-24T13:48:32;16.10;49.30
64561;DHT22;50960;46.838;16.838;2023-02-24T14:02:19;16.40;48.40
64561;DHT22;50960;46.838;16.838;2023-02-24T14:04:52;16.00;48.30
64561;DHT22;50960;46.838;16.838;2023-02-24T14:07:24;16.10;48.90
64561;DHT22;50960;46.838;16.838;2023-02-24T14:09:55;15.50;49.40
64561;DHT22;50960;46.838;16.838;2023-02-24T14:12:25;15.40;49.30
64561;DHT22;50960;46.838;16.838;2023-02-24T14:14:53;15.40;48.10
64561;DHT22;50960;46.838;16.838;2023-02-24T14:17:29;15.40;48.00
64561;DHT22;50960;46.838;16.838;2023-02-24T14:20:20;15.40;48.60
64561;DHT22;50960;46.838;16.838;2023-02-24T14:22:50;15.50;48.20
64561;DHT22;50960;46.838;16.838;2023-02-24T14:25:19;15.70;49.40
64561;DHT22;50960;46.838;16.838;2023-02-24T14:27:48;15.70;49.40
64561;DHT22;50960;46.838;16.838;2023-02-24T14:30:37;15.80;49.50
64561;DHT22;50960;46.838;16.838;2023-02-24T14:33:06;15.30;48.90
64561;DHT22;50960;46.838;16.838;2023-02-24T14:35:34;15.40;50.00
64561;DHT22;50960;46.838;16.838;2023-02-24T14:38:01;15.30;50.50
64561;DHT22;50960;46.838;16.838;2023-02-24T14:40:28;15.60;50.50
64561;DHT22;50960;46.838;16.838;2023-02-24T14:42:55;15.50;50.50
64561;DHT22;50960;46.838;16.838;2023-02-24T14:45:25;15.20;50.90
64561;DHT22;50960;46.838;16.838;2023-02-24T14:47:53;15.50;51.30
64561;DHT22;50960;46.838;16.838;2023-02-24T14:50:26;15.60;51.00
64561;DHT22;50960;46.838;16.838;2023-02-24T14:53:01;15.60;50.90
64561;DHT22;50960;46.838;16.838;2023-02-24T14:55:38;15.50;50.90
64561;DHT22;50960;46.838;16.838;2023-02-24T14:58:20;15.40;51.30
64561;DHT22;50960;46.838;16.838;2023-02-24T15:03:38;15.40;51.50
64561;DHT22;50960;46.838;16.838;2023-02-24T15:06:19;15.60;51.30
64561;DHT22;50960;46.838;16.838;2023-02-24T15:08:49;15.90;50.60
64561;DHT22;50960;46.838;16.838;2023-02-24T15:11:21;15.90;50.60
64561;DHT22;50960;46.838;16.838;2023-02-24T15:13:56;16.40;49.70
64561;DHT22;50960;46.838;16.838;2023-02-24T15:16:37;16.20;49.30
64561;DHT22;50960;46.838;16.838;2023-02-24T15:19:16;16.30;49.80
64561;DHT22;50960;46.838;16.838;2023-02-24T15:21:46;16.10;49.50
64561;DHT22;50960;46.838;16.838;2023-02-24T15:24:18;15.80;50.60
64561;DHT22;50960;46.838;16.838;2023-02-24T15:26:54;16.80;49.30
64561;DHT22;50960;46.838;16.838;2023-02-24T15:29:24;17.40;47.60
64561;DHT22;50960;46.838;16.838;2023-02-24T15:31:53;18.00;45.90
64561;DHT22;50960;46.838;16.838;2023-02-24T15:34:27;15.90;47.90
64561;DHT22;50960;46.838;16.838;2023-02-24T15:36:57;15.40;49.80
64561;DHT22;50960;46.838;16.838;2023-02-24T15:39:27;15.20;51.30
64561;DHT22;50960;46.838;16.838;2023-02-24T15:42:07;15.10;52.10
64561;DHT22;50960;46.838;16.838;2023-02-24T15:44:35;15.20;52.50
64561;DHT22;50960;46.838;16.838;2023-02-24T15:47:25;15.40;52.00
64561;DHT22;50960;46.838;16.838;2023-02-24T15:49:52;15.20;52.30
64561;DHT22;50960;46.838;16.838;2023-02-24T15:52:27;15.00;52.50
64561;DHT22;50960;46.838;16.838;2023-02-24T15:54:55;14.90;53.00
64561;DHT22;50960;46.838;16.838;2023-02-24T15:57:23;14.70;53.80
64561;DHT22;50960;46.838;16.838;2023-02-24T15:59:50;14.60;53.80
64561;DHT22;50960;46.838;16.838;2023-02-24T16:02:21;14.30;54.70
64561;DHT22;50960;46.838;16.838;2023-02-24T16:04:49;14.30;54.80
64561;DHT22;50960;46.838;16.838;2023-02-24T16:07:25;14.20;55.50
64561;DHT22;50960;46.838;16.838;2023-02-24T16:09:54;14.00;55.70
64561;DHT22;50960;46.838;16.838;2023-02-24T16:12:45;14.00;56.20
64561;DHT22;50960;46.838;16.838;2023-02-24T16:15:18;13.80;56.70
64561;DHT22;50960;46.838;16.838;2023-02-24T16:17:45;13.70;56.90
64561;DHT22;50960;46.838;16.838;2023-02-24T16:20:15;13.60;57.10
64561;DHT22;50960;46.838;16.838;2023-02-24T16:22:42;13.60;57.50
64561;DHT22;50960;46.838;16.838;2023-02-24T16:25:12;13.50;58.00
64561;DHT22;50960;46.838;16.838;2023-02-24T16:27:39;13.40;58.70
64561;DHT22;50960;46.838;16.838;2023-02-24T16:30:08;13.30;58.80
64561;DHT22;50960;46.838;16.838;2023-02-24T16:32:39;13.10;59.30
64561;DHT22;50960;46.838;16.838;2023-02-24T16:35:05;13.10;59.80
64561;DHT22;50960;46.838;16.838;2023-02-24T16:37:36;13.00;60.10
64561;DHT22;50960;46.838;16.838;2023-02-24T16:40:03;12.90;60.70
64561;DHT22;50960;46.838;16.838;2023-02-24T16:42:36;12.80;61.30
64561;DHT22;50960;46.838;16.838;2023-02-24T16:45:02;12.80;61.80
64561;DHT22;50960;46.838;16.838;2023-02-24T16:47:32;12.70;62.00
64561;DHT22;50960;46.838;16.838;2023-02-24T16:49:59;12.60;62.70
64561;DHT22;50960;46.838;16.838;2023-02-24T16:52:25;12.60;62.90
64561;DHT22;50960;46.838;16.838;2023-02-24T16:54:53;12.50;63.40
64561;DHT22;50960;46.838;16.838;2023-02-24T16:57:20;12.50;63.50
64561;DHT22;50960;46.838;16.838;2023-02-24T16:59:50;12.40;63.90
64561;DHT22;50960;46.838;16.838;2023-02-24T17:02:22;12.30;64.30
64561;DHT22;50960;46.838;16.838;2023-02-24T17:04:50;12.30;64.60
64561;DHT22;50960;46.838;16.838;2023-02-24T17:07:16;12.10;64.70
64561;DHT22;50960;46.838;16.838;2023-02-24T17:09:45;12.10;65.10
64561;DHT22;50960;46.838;16.838;2023-02-24T17:12:19;12.10;65.70
64561;DHT22;50960;46.838;16.838;2023-02-24T17:14:46;12.00;65.80
64561;DHT22;50960;46.838;16.838;2023-02-24T17:17:13;12.00;66.10
64561;DHT22;50960;46.838;16.838;2023-02-24T17:19:39;12.00;66.20
64561;DHT22;50960;46.838;16.838;2023-02-24T17:22:06;12.00;66.60
64561;DHT22;50960;46.838;16.838;2023-02-24T17:24:32;12.00;66.70
64561;DHT22;50960;46.838;16.838;2023-02-24T17:26:58;12.00;66.80
64561;DHT22;50960;46.838;16.838;2023-02-24T17:29:26;11.90;67.00
64561;DHT22;50960;46.838;16.838;2023-02-24T17:31:52;11.90;67.50
64561;DHT22;50960;46.838;16.838;2023-02-24T17:34:19;11.80;67.90
64561;DHT22;50960;46.838;16.838;2023-02-24T17:36:46;11.80;67.90
64561;DHT22;50960;46.838;16.838;2023-02-24T17:39:13;11.80;68.10
64561;DHT22;50960;46.838;16.838;2023-02-24T17:41:39;11.70;68.40
64561;DHT22;50960;46.838;16.838;2023-02-24T17:44:05;11.80;68.30
64561;DHT22;50960;46.838;16.838;2023-02-24T17:46:32;11.80;68.60
64561;DHT22;50960;46.838;16.838;2023-02-24T17:48:58;11.80;68.80
64561;DHT22;50960;46.838;16.838;2023-02-24T17:51:25;11.80;68.80
64561;DHT22;50960;46.838;16.838;2023-02-24T17:53:53;11.70;68.70
64561;DHT22;50960;46.838;16.838;2023-02-24T17:56:19;11.70;68.80
64561;DHT22;50960;46.838;16.838;2023-02-24T17:58:45;11.70;68.90
64561;DHT22;50960;46.838;16.838;2023-02-24T18:01:12;11.60;69.10
64561;DHT22;50960;46.838;16.838;2023-02-24T18:03:38;11.60;69.10
64561;DHT22;50960;46.838;16.838;2023-02-24T18:06:07;11.50;69.60
64561;DHT22;50960;46.838;16.838;2023-02-24T18:08:34;11.50;69.30
64561;DHT22;50960;46.838;16.838;2023-02-24T18:11:02;11.50;69.70
64561;DHT22;50960;46.838;16.838;2023-02-24T18:13:29;11.50;69.80
64561;DHT22;50960;46.838;16.838;2023-02-24T18:15:56;11.50;69.50
64561;DHT22;50960;46.838;16.838;2023-02-24T18:18:23;11.40;69.70
64561;DHT22;50960;46.838;16.838;2023-02-24T18:20:50;11.50;69.30
64561;DHT22;50960;46.838;16.838;2023-02-24T18:23:17;11.40;69.40
64561;DHT22;50960;46.838;16.838;2023-02-24T18:25:43;11.40;69.30
64561;DHT22;50960;46.838;16.838;2023-02-24T18:28:10;11.40;69.30
64561;DHT22;50960;46.838;16.838;2023-02-24T18:30:38;11.50;69.20
64561;DHT22;50960;46.838;16.838;2023-02-24T18:33:05;11.40;69.30
64561;DHT22;50960;46.838;16.838;2023-02-24T18:35:31;11.40;69.40
64561;DHT22;50960;46.838;16.838;2023-02-24T18:37:57;11.40;69.40
64561;DHT22;50960;46.838;16.838;2023-02-24T18:40:25;11.40;69.20
64561;DHT22;50960;46.838;16.838;2023-02-24T18:42:51;11.50;69.20
64561;DHT22;50960;46.838;16.838;2023-02-24T18:45:18;11.40;69.10
64561;DHT22;50960;46.838;16.838;2023-02-24T18:47:45;11.50;69.10
64561;DHT22;50960;46.838;16.838;2023-02-24T18:52:40;11.50;67.40
64561;DHT22;50960;46.838;16.838;2023-02-24T18:55:07;11.50;68.20
64561;DHT22;50960;46.838;16.838;2023-02-24T18:57:34;11.40;68.20
64561;DHT22;50960;46.838;16.838;2023-02-24T19:00:02;11.40;68.20
64561;DHT22;50960;46.838;16.838;2023-02-24T19:02:29;11.30;68.50
64561;DHT22;50960;46.838;16.838;2023-02-24T19:04:55;11.40;68.60
64561;DHT22;50960;46.838;16.838;2023-02-24T19:07:23;11.40;68.50
64561;DHT22;50960;46.838;16.838;2023-02-24T19:09:50;11.40;68.60
64561;DHT22;50960;46.838;16.838;2023-02-24T19:12:16;11.40;68.70
64561;DHT22;50960;46.838;16.838;2023-02-24T19:14:44;11.40;68.60
64561;DHT22;50960;46.838;16.838;2023-02-24T19:17:10;11.40;67.70
64561;DHT22;50960;46.838;16.838;2023-02-24T19:19:38;11.40;68.60
64561;DHT22;50960;46.838;16.838;2023-02-24T19:22:04;11.40;68.80
64561;DHT22;50960;46.838;16.838;2023-02-24T19:24:30;11.40;68.90
64561;DHT22;50960;46.838;16.838;2023-02-24T19:26:57;11.30;69.30
64561;DHT22;50960;46.838;16.838;2023-02-24T19:29:23;11.40;69.50
64561;DHT22;50960;46.838;16.838;2023-02-24T19:31:49;11.30;69.30
64561;DHT22;50960;46.838;16.838;2023-02-24T19:34:19;11.30;69.60
64561;DHT22;50960;46.838;16.838;2023-02-24T19:36:46;11.30;69.60
64561;DHT22;50960;46.838;16.838;2023-02-24T19:39:14;11.30;70.00
64561;DHT22;50960;46.838;16.838;2023-02-24T19:41:41;11.30;70.10
64561;DHT22;50960;46.838;16.838;2023-02-24T19:44:11;11.40;70.00
64561;DHT22;50960;46.838;16.838;2023-02-24T19:46:37;11.30;70.20
64561;DHT22;50960;46.838;16.838;2023-02-24T19:49:04;11.30;70.60
64561;DHT22;50960;46.838;16.838;2023-02-24T19:51:31;11.30;70.90
64561;DHT22;50960;46.838;16.838;2023-02-24T19:53:59;11.20;70.90
64561;DHT22;50960;46.838;16.838;2023-02-24T19:56:29;11.30;71.20
64561;DHT22;50960;46.838;16.838;2023-02-24T19:58:57;11.30;71.20
64561;DHT22;50960;46.838;16.838;2023-02-24T20:01:25;11.40;71.40
64561;DHT22;50960;46.838;16.838;2023-02-24T20:03:58;11.20;71.60
64561;DHT22;50960;46.838;16.838;2023-02-24T20:06:27;11.00;72.10
64561;DHT22;50960;46.838;16.838;2023-02-24T20:08:53;11.10;72.50
64561;DHT22;50960;46.838;16.838;2023-02-24T20:11:20;11.10;72.60
64561;DHT22;50960;46.838;16.838;2023-02-24T20:13:49;11.00;72.80
64561;DHT22;50960;46.838;16.838;2023-02-24T20:16:17;11.00;73.00
64561;DHT22;50960;46.838;16.838;2023-02-24T20:18:44;11.00;73.00
64561;DHT22;50960;46.838;16.838;2023-02-24T20:21:12;11.00;73.10
64561;DHT22;50960;46.838;16.838;2023-02-24T20:23:40;10.90;73.50
64561;DHT22;50960;46.838;16.838;2023-02-24T20:26:09;10.80;73.90
64561;DHT22;50960;46.838;16.838;2023-02-24T20:28:36;10.90;74.10
64561;DHT22;50960;46.838;16.838;2023-02-24T20:31:08;11.00;74.00
64561;DHT22;50960;46.838;16.838;2023-02-24T20:33:35;11.00;73.80
64561;DHT22;50960;46.838;16.838;2023-02-24T20:36:09;11.00;73.60
64561;DHT22;50960;46.838;16.838;2023-02-24T20:38:36;11.00;73.70
64561;DHT22;50960;46.838;16.838;2023-02-24T20:41:04;11.10;73.60
64561;DHT22;50960;46.838;16.838;2023-02-24T20:43:31;11.10;73.40
64561;DHT22;50960;46.838;16.838;2023-02-24T20:45:58;11.10;73.50
64561;DHT22;50960;46.838;16.838;2023-02-24T20:48:25;10.90;73.60
64561;DHT22;50960;46.838;16.838;2023-02-24T20:50:52;10.90;74.00
64561;DHT22;50960;46.838;16.838;2023-02-24T20:53:18;10.90;74.40
64561;DHT22;50960;46.838;16.838;2023-02-24T20:55:45;10.80;74.40
64561;DHT22;50960;46.838;16.838;2023-02-24T20:58:11;10.90;74.50
64561;DHT22;50960;46.838;16.838;2023-02-24T21:00:38;11.00;74.30
64561;DHT22;50960;46.838;16.838;2023-02-24T21:03:05;11.10;74.60
64561;DHT22;50960;46.838;16.838;2023-02-24T21:05:36;11.00;74.30
64561;DHT22;50960;46.838;16.838;2023-02-24T21:08:03;11.10;74.40
64561;DHT22;50960;46.838;16.838;2023-02-24T21:10:30;11.00;74.50
64561;DHT22;50960;46.838;16.838;2023-02-24T21:12:56;11.00;74.50
64561;DHT22;50960;46.838;16.838;2023-02-24T21:15:22;11.00;74.90
64561;DHT22;50960;46.838;16.838;2023-02-24T21:17:48;10.90;75.10
64561;DHT22;50960;46.838;16.838;2023-02-24T21:20:15;10.90;75.20
64561;DHT22;50960;46.838;16.838;2023-02-24T21:22:41;11.00;75.30
64561;DHT22;50960;46.838;16.838;2023-02-24T21:25:08;10.90;75.30
64561;DHT22;50960;46.838;16.838;2023-02-24T21:27:37;11.00;76.60
64561;DHT22;50960;46.838;16.838;2023-02-24T21:30:06;11.00;75.70
64561;DHT22;50960;46.838;16.838;2023-02-24T21:32:33;10.90;75.90
64561;DHT22;50960;46.838;16.838;2023-02-24T21:34:59;10.80;76.10
64561;DHT22;50960;46.838;16.838;2023-02-24T21:37:25;10.80;76.30
64561;DHT22;50960;46.838;16.838;2023-02-24T21:39:51;10.90;76.10
64561;DHT22;50960;46.838;16.838;2023-02-24T21:42:18;10.90;76.50
64561;DHT22;50960;46.838;16.838;2023-02-24T21:44:44;10.80;76.40
64561;DHT22;50960;46.838;16.838;2023-02-24T21:47:10;10.90;76.00
64561;DHT22;50960;46.838;16.838;2023-02-24T21:49:36;10.80;76.70
64561;DHT22;50960;46.838;16.838;2023-02-24T21:52:03;10.80;76.30
64561;DHT22;50960;46.838;16.838;2023-02-24T21:54:34;10.90;76.60
64561;DHT22;50960;46.838;16.838;2023-02-24T21:57:01;10.80;76.60
64561;DHT22;50960;46.838;16.838;2023-02-24T21:59:27;10.90;76.80
64561;DHT22;50960;46.838;16.838;2023-02-24T22:01:53;10.90;76.70
64561;DHT22;50960;46.838;16.838;2023-02-24T22:04:20;10.90;76.40
64561;DHT22;50960;46.838;16.838;2023-02-24T22:06:46;10.90;76.40
